Time;durP1;ratioP1;P1;durP2;ratioP2;P2;SDS_P1;SDS_P2;PMS_P1;PMS_P2;Temp;Humidity;BMP_temperature;BMP_pressure;BME280_temperature;BME280_humidity;BME280_pressure;Samples;Min_cycle;Max_cycle;Signal;HPM_P1;HPM_P2
2023/07/22 00:02:15;;;;;;;15.65;10.90;;;;;;;15.06;100.00;101248.19;5301187;28;20130;-67
2023/07/22 00:04:47;;;;;;;17.15;11.68;;;;;;;15.08;100.00;101243.53;5296142;28;20031;-68
2023/07/22 00:07:18;;;;;;;13.52;10.82;;;;;;;15.02;100.00;101249.47;5296762;28;20577;-68
2023/07/22 00:09:50;;;;;;;16.20;12.00;;;;;;;14.95;100.00;101249.13;5297673;28;20024;-67
2023/07/22 00:12:25;;;;;;;21.48;12.50;;;;;;;15.00;100.00;101246.06;5298531;28;20031;-67
2023/07/22 00:14:56;;;;;;;17.17;12.27;;;;;;;15.12;100.00;101244.13;5305119;28;20028;-68
2023/07/22 00:17:28;;;;;;;16.73;12.35;;;;;;;15.04;100.00;101237.56;5309858;28;20504;-67
2023/07/22 00:20:00;;;;;;;16.65;12.35;;;;;;;15.05;100.00;101247.34;5304031;28;20020;-67
2023/07/22 00:22:31;;;;;;;17.50;11.63;;;;;;;14.99;100.00;101237.13;5307910;28;20192;-67
2023/07/22 00:25:03;;;;;;;19.30;12.02;;;;;;;15.00;100.00;101238.84;5306184;28;20109;-67
2023/07/22 00:27:34;;;;;;;16.38;12.20;;;;;;;15.01;100.00;101237.84;5307923;28;20082;-67
2023/07/22 00:30:09;;;;;;;17.48;11.20;;;;;;;14.97;100.00;101244.47;5306353;28;20177;-67
2023/07/22 00:32:41;;;;;;;16.67;11.63;;;;;;;15.00;100.00;101236.16;5308555;28;20032;-67
2023/07/22 00:35:13;;;;;;;15.80;11.43;;;;;;;14.95;100.00;101249.13;5306107;28;20035;-67
2023/07/22 00:37:44;;;;;;;17.20;12.00;;;;;;;14.89;100.00;101247.00;5307231;28;20077;-67
2023/07/22 00:40:15;;;;;;;15.40;11.25;;;;;;;14.99;100.00;101250.56;5307464;28;20027;-68
2023/07/22 00:42:47;;;;;;;15.25;11.40;;;;;;;14.90;100.00;101240.66;5312229;28;20065;-68
2023/07/22 00:45:19;;;;;;;14.68;10.90;;;;;;;14.90;100.00;101237.97;5308489;28;20032;-67
2023/07/22 00:47:50;;;;;;;14.93;11.30;;;;;;;14.90;100.00;101238.81;5307786;28;20432;-67
2023/07/22 00:50:24;;;;;;;15.50;11.50;;;;;;;14.92;100.00;101240.50;5308847;27;20393;-67
2023/07/22 00:52:55;;;;;;;17.52;11.70;;;;;;;14.88;100.00;101230.03;5312454;27;20053;-67
2023/07/22 00:55:27;;;;;;;15.18;11.07;;;;;;;14.92;100.00;101232.44;5311747;28;20504;-68
2023/07/22 00:57:59;;;;;;;15.55;10.32;;;;;;;14.86;100.00;101226.63;5309918;28;20042;-67
2023/07/22 01:00:30;;;;;;;13.63;10.63;;;;;;;14.98;100.00;101227.38;5309511;28;20031;-67
2023/07/22 01:03:02;;;;;;;14.75;9.98;;;;;;;14.89;100.00;101236.25;5310351;27;20027;-67
2023/07/22 01:05:35;;;;;;;15.65;11.60;;;;;;;14.85;100.00;101240.19;5312171;27;20031;-67
2023/07/22 01:08:06;;;;;;;16.57;11.20;;;;;;;14.88;100.00;101232.72;5311669;28;20074;-67
2023/07/22 01:10:39;;;;;;;15.25;11.25;;;;;;;14.95;100.00;101230.34;5309369;27;20429;-67
2023/07/22 01:13:10;;;;;;;14.35;10.88;;;;;;;14.87;100.00;101235.53;5311300;28;20028;-67
2023/07/22 01:15:42;;;;;;;15.75;11.45;;;;;;;14.96;100.00;101232.03;5312353;28;20053;-67
2023/07/22 01:18:14;;;;;;;17.25;12.02;;;;;;;14.95;100.00;101222.28;5314260;27;20730;-67
2023/07/22 01:20:46;;;;;;;14.73;10.85;;;;;;;14.86;100.00;101220.41;5316948;28;20031;-67
2023/07/22 01:23:18;;;;;;;16.98;11.70;;;;;;;14.84;100.00;101225.94;5333511;27;20055;-68
2023/07/22 01:25:50;;;;;;;15.23;11.23;;;;;;;14.83;100.00;101232.28;5315740;28;20461;-67
2023/07/22 01:28:22;;;;;;;16.83;11.73;;;;;;;14.96;100.00;101221.28;5320891;28;20363;-67
2023/07/22 01:30:54;;;;;;;16.70;11.50;;;;;;;15.00;100.00;101224.56;5314858;27;20032;-68
2023/07/22 01:33:26;;;;;;;14.43;11.10;;;;;;;14.93;100.00;101218.88;5314110;28;20467;-68
2023/07/22 01:36:00;;;;;;;16.40;11.15;;;;;;;14.97;100.00;101214.06;5317792;28;20358;-67
2023/07/22 01:38:31;;;;;;;17.40;11.77;;;;;;;14.84;100.00;101214.31;5315478;28;20474;-67
2023/07/22 01:41:02;;;;;;;16.73;11.75;;;;;;;14.86;100.00;101212.34;5308343;27;20116;-67
2023/07/22 01:43:34;;;;;;;16.02;11.88;;;;;;;14.98;100.00;101213.94;5310030;27;20042;-67
2023/07/22 01:46:05;;;;;;;15.48;11.30;;;;;;;14.93;100.00;101212.66;5309863;28;20054;-68
2023/07/22 01:48:37;;;;;;;16.75;11.73;;;;;;;14.94;100.00;101204.47;5310688;28;20028;-67
2023/07/22 01:51:08;;;;;;;17.65;11.73;;;;;;;14.90;100.00;101208.41;5309712;27;21090;-67
2023/07/22 01:53:40;;;;;;;18.95;12.57;;;;;;;14.94;100.00;101204.47;5324648;27;20024;-67
2023/07/22 01:56:11;;;;;;;17.08;12.10;;;;;;;14.86;100.00;101202.47;5312898;28;20047;-67
2023/07/22 01:58:43;;;;;;;16.63;12.02;;;;;;;14.81;100.00;101195.78;5308876;28;20125;-67
2023/07/22 02:01:15;;;;;;;18.77;11.73;;;;;;;14.84;100.00;101199.06;5311030;28;20670;-67
2023/07/22 02:03:47;;;;;;;16.35;11.60;;;;;;;14.83;100.00;101207.25;5289793;28;20032;-68
2023/07/22 02:06:19;;;;;;;17.90;11.88;;;;;;;14.78;100.00;101198.75;5303454;28;20092;-67
2023/07/22 02:08:50;;;;;;;16.77;10.90;;;;;;;14.79;100.00;101203.97;5301463;27;20071;-67
2023/07/22 02:11:22;;;;;;;16.75;11.65;;;;;;;14.74;100.00;101208.06;5306342;28;20062;-67
2023/07/22 02:13:53;;;;;;;15.55;11.43;;;;;;;14.78;100.00;101199.59;5309986;28;20084;-67
2023/07/22 02:16:25;;;;;;;18.40;12.57;;;;;;;14.77;100.00;101197.91;5309164;28;20031;-67
2023/07/22 02:18:56;;;;;;;16.90;11.30;;;;;;;14.87;100.00;101187.19;5306237;27;20036;-68
2023/07/22 02:21:28;;;;;;;18.10;11.68;;;;;;;14.81;100.00;101199.31;5302455;27;20035;-67
2023/07/22 02:23:59;;;;;;;20.23;11.88;;;;;;;14.79;100.00;101185.19;5302905;28;20031;-67
2023/07/22 02:26:31;;;;;;;19.08;12.10;;;;;;;14.78;100.00;101194.22;5302795;28;20115;-67
2023/07/22 02:29:02;;;;;;;17.33;12.43;;;;;;;14.79;100.00;101192.41;5306057;28;20426;-67
2023/07/22 02:31:34;;;;;;;18.10;12.07;;;;;;;14.76;100.00;101195.34;5304107;28;20484;-68
2023/07/22 02:34:05;;;;;;;17.60;12.00;;;;;;;14.77;100.00;101192.53;5307026;28;20024;-67
2023/07/22 02:36:37;;;;;;;18.13;12.30;;;;;;;14.88;100.00;101191.56;5306446;28;20116;-67
2023/07/22 02:39:11;;;;;;;17.80;11.07;;;;;;;14.84;100.00;101182.06;5306417;28;20110;-67
2023/07/22 02:41:42;;;;;;;17.50;12.57;;;;;;;14.85;100.00;101194.53;5303978;28;20843;-67
2023/07/22 02:44:14;;;;;;;18.50;12.27;;;;;;;14.85;100.00;101191.84;5304927;28;20027;-67
2023/07/22 02:46:45;;;;;;;17.25;12.15;;;;;;;14.66;100.00;101193.47;5302630;28;20023;-67
2023/07/22 02:49:17;;;;;;;17.30;11.85;;;;;;;14.67;100.00;101194.34;5304371;27;20028;-67
2023/07/22 02:51:48;;;;;;;17.60;12.07;;;;;;;14.58;100.00;101190.63;5307152;28;20039;-67
2023/07/22 02:54:19;;;;;;;18.17;11.80;;;;;;;14.59;100.00;101194.16;5306555;28;20034;-67
2023/07/22 02:56:51;;;;;;;19.48;12.60;;;;;;;14.68;100.00;101190.66;5303480;28;20020;-67
2023/07/22 02:59:23;;;;;;;16.25;11.90;;;;;;;14.58;100.00;101193.31;5304644;27;20431;-67
2023/07/22 03:01:57;;;;;;;17.02;11.98;;;;;;;14.54;100.00;101196.38;5307592;28;20027;-67
2023/07/22 03:04:29;;;;;;;15.77;11.05;;;;;;;14.52;100.00;101191.13;5301997;27;20054;-67
2023/07/22 03:07:01;;;;;;;17.27;11.93;;;;;;;14.51;100.00;101198.31;5304931;28;20027;-67
2023/07/22 03:09:32;;;;;;;17.35;11.13;;;;;;;14.34;100.00;101195.41;5303375;28;20019;-67
2023/07/22 03:12:04;;;;;;;16.02;11.38;;;;;;;14.31;100.00;101193.84;5308156;28;20482;-67
2023/07/22 03:14:37;;;;;;;18.67;12.75;;;;;;;14.36;100.00;101196.13;5301598;28;20039;-67
2023/07/22 03:17:08;;;;;;;16.65;12.10;;;;;;;14.26;100.00;101198.75;5302418;28;20405;-67
2023/07/22 03:19:40;;;;;;;17.80;12.23;;;;;;;14.33;100.00;101199.94;5304894;27;20023;-67
2023/07/22 03:22:16;;;;;;;17.00;12.07;;;;;;;14.18;100.00;101201.25;5310739;28;20042;-67
2023/07/22 03:24:47;;;;;;;18.65;12.00;;;;;;;14.24;100.00;101208.78;5306240;28;20889;-67
2023/07/22 03:27:19;;;;;;;17.85;11.63;;;;;;;14.14;100.00;101203.34;5304412;28;20478;-68
2023/07/22 03:29:50;;;;;;;19.23;12.50;;;;;;;14.11;100.00;101209.84;5304149;28;20462;-67
2023/07/22 03:32:21;;;;;;;16.92;11.10;;;;;;;14.03;100.00;101206.09;5296253;28;20117;-67
2023/07/22 03:34:53;;;;;;;17.05;11.85;;;;;;;14.06;100.00;101203.19;5299666;28;20027;-67
2023/07/22 03:37:24;;;;;;;17.15;11.32;;;;;;;13.95;100.00;101203.22;5306585;28;20032;-67
2023/07/22 03:39:56;;;;;;;16.38;11.25;;;;;;;14.02;100.00;101210.63;5307009;28;20019;-67
2023/07/22 03:42:27;;;;;;;16.42;11.52;;;;;;;13.93;100.00;101212.25;5313001;28;20032;-67
2023/07/22 03:44:58;;;;;;;17.70;11.63;;;;;;;14.00;100.00;101217.97;5304377;28;20604;-67
2023/07/22 03:47:30;;;;;;;16.20;11.63;;;;;;;13.96;100.00;101213.84;5307310;28;20075;-67
2023/07/22 03:50:02;;;;;;;17.75;12.02;;;;;;;13.79;100.00;101217.06;5310506;28;20027;-67
2023/07/22 03:52:33;;;;;;;17.83;12.07;;;;;;;13.74;100.00;101214.78;5305664;27;20039;-67
2023/07/22 03:55:05;;;;;;;16.52;11.40;;;;;;;13.74;100.00;101220.16;5302443;28;20053;-67
2023/07/22 03:57:37;;;;;;;19.52;12.27;;;;;;;13.79;100.00;101215.25;5303058;28;20036;-67
2023/07/22 04:00:12;;;;;;;17.85;11.55;;;;;;;13.73;100.00;101213.94;5302279;28;20034;-68
2023/07/22 04:02:44;;;;;;;19.52;12.05;;;;;;;13.70;100.00;101219.56;5304426;28;20088;-67
2023/07/22 04:05:15;;;;;;;20.08;11.85;;;;;;;13.63;100.00;101214.84;5300746;28;20501;-67
2023/07/22 04:07:46;;;;;;;19.27;12.23;;;;;;;13.65;100.00;101212.88;5301397;28;20055;-67
2023/07/22 04:10:18;;;;;;;20.80;12.90;;;;;;;13.65;100.00;101212.88;5306291;28;20042;-67
2023/07/22 04:12:49;;;;;;;18.67;12.25;;;;;;;13.60;100.00;101215.94;5317278;28;20477;-67
2023/07/22 04:15:21;;;;;;;18.00;12.27;;;;;;;13.60;100.00;101209.75;5308665;28;20016;-67
2023/07/22 04:17:52;;;;;;;20.63;12.52;;;;;;;13.58;100.00;101217.06;5304546;28;20103;-67
2023/07/22 04:20:24;;;;;;;18.45;12.45;;;;;;;13.54;100.00;101219.16;5311547;28;20581;-67
2023/07/22 04:22:56;;;;;;;17.58;12.02;;;;;;;13.48;100.00;101223.19;5305402;28;20029;-67
2023/07/22 04:25:27;;;;;;;17.85;12.25;;;;;;;13.44;100.00;101221.75;5308074;28;20057;-67
2023/07/22 04:27:59;;;;;;;19.10;13.05;;;;;;;13.63;100.00;101221.03;5306250;28;20443;-67
2023/07/22 04:30:30;;;;;;;17.83;11.65;;;;;;;13.55;100.00;101214.63;5312255;28;20084;-67
2023/07/22 04:33:03;;;;;;;18.20;12.57;;;;;;;13.51;100.00;101217.56;5309272;28;20576;-68
2023/07/22 04:35:37;;;;;;;18.08;12.35;;;;;;;13.61;100.00;101225.69;5312768;28;20114;-67
2023/07/22 04:38:08;;;;;;;18.60;11.77;;;;;;;13.55;100.00;101220.00;5316846;28;20027;-67
2023/07/22 04:40:43;;;;;;;17.98;12.00;;;;;;;13.53;100.00;101225.47;5312894;28;20058;-67
2023/07/22 04:43:15;;;;;;;19.65;12.10;;;;;;;13.51;100.00;101230.97;5313081;28;20035;-67
2023/07/22 04:45:49;;;;;;;18.88;13.00;;;;;;;13.56;100.00;101225.22;5309505;28;20070;-67
2023/07/22 04:48:24;;;;;;;17.50;12.23;;;;;;;13.51;100.00;101217.56;5309686;28;20569;-67
2023/07/22 04:50:56;;;;;;;19.95;13.43;;;;;;;13.52;100.00;101221.94;5312440;28;20046;-67
2023/07/22 04:53:27;;;;;;;19.05;12.63;;;;;;;13.62;100.00;101221.19;5309378;28;20031;-67
2023/07/22 04:55:59;;;;;;;18.30;10.95;;;;;;;13.61;100.00;101228.38;5305249;28;20036;-67
2023/07/22 04:58:30;;;;;;;18.05;11.48;;;;;;;13.74;100.00;101230.88;5315673;28;20258;-67
2023/07/22 05:01:02;;;;;;;19.10;11.18;;;;;;;13.71;100.00;101223.06;5307147;28;20113;-67
2023/07/22 05:03:33;;;;;;;19.35;12.13;;;;;;;13.80;100.00;101230.34;5315522;28;20035;-67
2023/07/22 05:06:04;;;;;;;20.02;12.23;;;;;;;13.83;100.00;101224.75;5312156;28;20027;-67
2023/07/22 05:08:37;;;;;;;16.30;11.05;;;;;;;13.95;100.00;101233.59;5306852;28;20043;-67
2023/07/22 05:11:09;;;;;;;19.52;11.05;;;;;;;13.93;100.00;101231.03;5310475;28;20055;-67
2023/07/22 05:13:40;;;;;;;16.25;11.00;;;;;;;14.02;100.00;101234.78;5310957;28;20543;-67
2023/07/22 05:16:11;;;;;;;16.65;10.63;;;;;;;14.10;100.00;101237.66;5312278;28;20370;-67
2023/07/22 05:18:43;;;;;;;17.42;12.00;;;;;;;14.16;100.00;101241.66;5310695;28;20042;-67
2023/07/22 05:21:14;;;;;;;17.95;11.23;;;;;;;14.17;100.00;101232.63;5316512;28;20035;-67
2023/07/22 05:23:46;;;;;;;17.52;11.52;;;;;;;14.27;100.00;101238.91;5310948;28;20111;-67
2023/07/22 05:26:17;;;;;;;18.60;11.93;;;;;;;14.33;100.00;101240.19;5313590;28;20031;-67
2023/07/22 05:28:48;;;;;;;15.07;11.05;;;;;;;14.24;100.00;101232.94;5318466;28;20051;-67
2023/07/22 05:31:20;;;;;;;20.38;13.00;;;;;;;14.39;100.00;101238.81;5313664;28;20032;-67
2023/07/22 05:33:51;;;;;;;19.83;11.70;;;;;;;14.39;100.00;101233.47;5307544;28;20020;-67
2023/07/22 05:36:23;;;;;;;17.42;11.88;;;;;;;14.47;100.00;101231.78;5313635;28;20034;-67
2023/07/22 05:38:54;;;;;;;17.65;11.05;;;;;;;14.45;100.00;101231.06;5317801;28;20030;-67
2023/07/22 05:41:26;;;;;;;20.25;11.75;;;;;;;14.61;100.00;101235.13;5317938;28;20016;-67
2023/07/22 05:43:57;;;;;;;20.80;12.40;;;;;;;14.73;100.00;101233.22;5319913;27;20027;-68
2023/07/22 05:46:29;;;;;;;17.65;10.35;;;;;;;14.75;100.00;101234.78;5310199;28;20092;-68
2023/07/22 05:49:00;;;;;;;17.88;11.13;;;;;;;14.80;100.00;101237.06;5309922;27;20024;-68
2023/07/22 05:51:32;;;;;;;15.68;11.32;;;;;;;14.78;100.00;101231.81;5311910;28;20023;-68
2023/07/22 05:54:04;;;;;;;16.73;10.63;;;;;;;14.90;100.00;101235.28;5309627;28;20032;-68
2023/07/22 05:56:35;;;;;;;17.42;10.80;;;;;;;14.86;100.00;101233.81;5312177;28;20035;-67
2023/07/22 05:59:07;;;;;;;18.98;11.93;;;;;;;14.89;100.00;101223.66;5313103;28;20124;-68
2023/07/22 06:01:39;;;;;;;15.63;11.32;;;;;;;14.92;100.00;101219.88;5314091;28;20525;-67
2023/07/22 06:04:10;;;;;;;20.38;11.95;;;;;;;14.96;100.00;101215.91;5307677;28;20110;-67
2023/07/22 06:06:41;;;;;;;19.52;11.57;;;;;;;15.03;100.00;101219.78;5316283;28;20024;-67
2023/07/22 06:09:13;;;;;;;18.38;11.77;;;;;;;15.05;100.00;101211.53;5312925;28;20052;-67
2023/07/22 06:11:44;;;;;;;19.25;11.63;;;;;;;15.13;100.00;101219.78;5312638;28;20035;-67
2023/07/22 06:14:16;;;;;;;16.58;11.05;;;;;;;15.25;100.00;101213.28;5310975;28;20046;-68
2023/07/22 06:16:47;;;;;;;17.48;11.05;;;;;;;15.34;100.00;101222.38;5313560;28;20023;-67
2023/07/22 06:19:18;;;;;;;18.48;11.30;;;;;;;15.41;100.00;101215.44;5310263;27;20089;-67
2023/07/22 06:21:50;;;;;;;17.02;10.93;;;;;;;15.49;100.00;101212.91;5305752;28;20028;-67
2023/07/22 06:24:22;;;;;;;17.48;11.40;;;;;;;15.62;100.00;101215.31;5310200;28;20070;-67
2023/07/22 06:26:53;;;;;;;19.38;11.90;;;;;;;15.63;100.00;101217.03;5306142;28;20062;-67
2023/07/22 06:29:25;;;;;;;19.42;12.35;;;;;;;15.77;100.00;101218.47;5306867;28;20023;-68
2023/07/22 06:31:56;;;;;;;21.88;12.60;;;;;;;15.89;100.00;101213.78;5307202;28;20114;-68
2023/07/22 06:34:27;;;;;;;19.85;12.15;;;;;;;15.87;100.00;101213.06;5286142;27;20032;-68
2023/07/22 06:36:59;;;;;;;19.33;11.68;;;;;;;15.90;100.00;101218.19;5307000;27;20114;-68
2023/07/22 06:39:30;;;;;;;20.63;12.43;;;;;;;15.98;100.00;101210.22;5307328;28;20063;-68
2023/07/22 06:42:02;;;;;;;18.52;12.85;;;;;;;16.04;100.00;101209.66;5307367;28;20038;-68
2023/07/22 06:44:33;;;;;;;21.40;12.20;;;;;;;16.08;100.00;101202.13;5315010;27;20027;-68
2023/07/22 06:47:05;;;;;;;19.95;13.30;;;;;;;16.10;100.00;101202.84;5312159;28;20035;-68
2023/07/22 06:49:37;;;;;;;17.63;12.30;;;;;;;16.12;100.00;101195.47;5307596;28;20478;-68
2023/07/22 06:52:08;;;;;;;24.48;13.27;;;;;;;16.18;100.00;101202.09;5312083;28;20454;-68
2023/07/22 06:54:40;;;;;;;19.02;12.98;;;;;;;16.24;100.00;101204.22;5308350;28;20034;-68
2023/07/22 06:57:11;;;;;;;21.88;13.25;;;;;;;16.24;100.00;101196.13;5294185;28;20564;-68
2023/07/22 06:59:43;;;;;;;18.23;11.88;;;;;;;16.35;100.00;101201.34;5307502;28;20032;-68
2023/07/22 07:02:14;;;;;;;18.92;12.00;;;;;;;16.43;100.00;101201.50;5303397;28;20058;-68
2023/07/22 07:04:45;;;;;;;22.13;12.55;;;;;;;16.65;100.00;101196.72;5308670;28;20027;-68
2023/07/22 07:07:17;;;;;;;18.45;12.35;;;;;;;16.75;100.00;101193.97;5310081;27;20031;-68
2023/07/22 07:09:48;;;;;;;20.27;11.88;;;;;;;16.85;100.00;101192.94;5306853;28;20056;-68
2023/07/22 07:12:20;;;;;;;19.15;12.68;;;;;;;16.92;100.00;101190.50;5310509;28;20155;-68
2023/07/22 07:14:51;;;;;;;18.15;12.68;;;;;;;16.95;100.00;101183.97;5312229;27;20026;-68
2023/07/22 07:17:23;;;;;;;22.00;13.18;;;;;;;17.02;100.00;101190.47;5311501;28;20047;-68
2023/07/22 07:19:54;;;;;;;19.70;12.60;;;;;;;17.14;100.00;101191.94;5308427;28;20027;-68
2023/07/22 07:22:26;;;;;;;17.65;11.90;;;;;;;17.14;100.00;101191.09;5310661;28;20032;-68
2023/07/22 07:24:57;;;;;;;19.50;12.40;;;;;;;17.19;100.00;101186.94;5304706;27;20024;-68
2023/07/22 07:27:28;;;;;;;18.27;11.73;;;;;;;17.25;100.00;101183.63;5313296;27;20112;-68
2023/07/22 07:30:00;;;;;;;20.70;12.25;;;;;;;17.22;100.00;101193.88;5310831;28;20122;-68
2023/07/22 07:32:31;;;;;;;18.48;11.43;;;;;;;17.32;100.00;101186.56;5315544;28;20035;-68
2023/07/22 07:35:04;;;;;;;16.20;11.13;;;;;;;17.32;100.00;101191.13;5310936;28;20763;-68
2023/07/22 07:37:35;;;;;;;19.98;11.63;;;;;;;17.40;100.00;101186.66;5312882;28;20036;-68
2023/07/22 07:40:08;;;;;;;18.02;11.25;;;;;;;17.52;100.00;101189.97;5300307;28;20095;-68
2023/07/22 07:42:39;;;;;;;15.80;10.32;;;;;;;17.57;100.00;101189.50;5309158;28;20027;-68
2023/07/22 07:45:10;;;;;;;17.15;10.77;;;;;;;17.55;100.00;101189.66;5291900;28;20216;-68
2023/07/22 07:47:42;;;;;;;17.30;10.55;;;;;;;17.74;100.00;101194.03;5310019;28;20031;-68
2023/07/22 07:50:13;;;;;;;16.27;10.05;;;;;;;17.82;100.00;101179.75;5306952;27;20019;-69
2023/07/22 07:52:44;;;;;;;18.98;11.15;;;;;;;17.92;100.00;101191.34;5310048;28;20027;-68
2023/07/22 07:55:16;;;;;;;16.67;10.63;;;;;;;18.07;100.00;101201.59;5313012;28;20055;-68
2023/07/22 07:57:47;;;;;;;15.00;9.48;;;;;;;18.21;100.00;101188.34;5313533;28;20019;-68
2023/07/22 08:00:20;;;;;;;15.18;9.63;;;;;;;18.26;100.00;101193.28;5313856;28;20405;-68
2023/07/22 08:02:51;;;;;;;16.50;9.30;;;;;;;18.33;100.00;101193.47;5314566;27;20027;-68
2023/07/22 08:05:23;;;;;;;15.82;9.73;;;;;;;18.30;100.00;101194.66;5313105;28;20027;-68
2023/07/22 08:07:54;;;;;;;16.73;8.70;;;;;;;18.38;100.00;101193.84;5315223;27;20545;-68
2023/07/22 08:10:26;;;;;;;16.63;9.35;;;;;;;18.48;100.00;101191.88;5315221;28;20023;-68
2023/07/22 08:12:57;;;;;;;13.77;9.43;;;;;;;18.56;100.00;101194.63;5305390;28;20915;-68
2023/07/22 08:15:29;;;;;;;13.95;8.93;;;;;;;18.59;100.00;101188.88;5314135;28;20023;-68
2023/07/22 08:18:00;;;;;;;13.48;8.98;;;;;;;18.70;100.00;101192.34;5314053;27;20412;-68
2023/07/22 08:20:31;;;;;;;15.40;9.07;;;;;;;18.72;100.00;101190.31;5316636;28;20309;-68
2023/07/22 08:23:03;;;;;;;17.60;9.15;;;;;;;18.75;100.00;101192.66;5317598;28;20557;-69
2023/07/22 08:25:34;;;;;;;14.05;8.82;;;;;;;18.73;100.00;101187.41;5314132;28;20489;-68
2023/07/22 08:28:05;;;;;;;17.60;8.57;;;;;;;18.70;100.00;101195.03;5314518;28;20047;-69
2023/07/22 08:30:39;;;;;;;16.25;9.07;;;;;;;18.73;100.00;101197.41;5316497;28;20028;-69
2023/07/22 08:33:11;;;;;;;11.57;7.70;;;;;;;18.72;100.00;101196.56;5314707;28;20043;-68
2023/07/22 08:35:43;;;;;;;13.18;7.80;;;;;;;18.80;100.00;101191.22;5311507;28;20043;-68
2023/07/22 08:38:14;;;;;;;16.27;8.48;;;;;;;18.83;100.00;101197.28;5313131;28;20032;-68
2023/07/22 08:40:50;;;;;;;14.18;8.43;;;;;;;18.80;100.00;101180.41;5314093;28;20493;-69
2023/07/22 08:43:22;;;;;;;12.85;7.30;;;;;;;18.85;100.00;101188.03;5318296;28;20024;-69
2023/07/22 08:45:54;;;;;;;9.68;6.60;;;;;;;18.97;100.00;101185.88;5308777;28;20059;-69
2023/07/22 08:48:29;;;;;;;11.95;7.68;;;;;;;19.02;100.00;101194.31;5313708;28;20139;-69
2023/07/22 08:51:06;;;;;;;12.27;7.40;;;;;;;19.30;100.00;101188.66;5314424;28;20033;-69
2023/07/22 08:53:38;;;;;;;13.00;7.57;;;;;;;19.46;100.00;101195.94;5313197;28;20062;-69
2023/07/22 08:56:10;;;;;;;13.07;7.22;;;;;;;19.62;100.00;101193.28;5311812;28;20023;-69
2023/07/22 08:58:43;;;;;;;10.00;6.25;;;;;;;19.87;100.00;101193.31;5310815;28;20053;-69
2023/07/22 09:01:15;;;;;;;10.90;6.70;;;;;;;19.99;100.00;101191.94;5311580;28;20011;-69
2023/07/22 09:03:47;;;;;;;10.90;5.95;;;;;;;20.09;100.00;101198.00;5312606;28;20024;-69
2023/07/22 09:06:19;;;;;;;11.25;6.70;;;;;;;20.16;100.00;101187.34;5318934;28;20084;-69
2023/07/22 09:08:52;;;;;;;10.60;6.50;;;;;;;20.16;100.00;101196.31;5310329;28;20062;-69
2023/07/22 09:11:25;;;;;;;11.45;5.97;;;;;;;20.36;100.00;101198.63;5317971;28;20389;-69
2023/07/22 09:13:57;;;;;;;12.00;6.07;;;;;;;20.34;100.00;101189.84;5319873;28;20056;-69
2023/07/22 09:16:30;;;;;;;10.43;6.07;;;;;;;20.31;100.00;101193.75;5317215;28;20042;-69
2023/07/22 09:19:03;;;;;;;10.95;6.30;;;;;;;20.42;100.00;101188.97;5317031;28;20030;-69
2023/07/22 09:21:35;;;;;;;10.43;6.47;;;;;;;20.60;100.00;101180.66;5305399;28;20023;-69
2023/07/22 09:24:25;;;;;;;9.27;5.38;;;;;;;20.79;100.00;101176.66;5318044;28;20019;-69
2023/07/22 09:26:58;;;;;;;9.07;5.70;;;;;;;20.93;100.00;101176.75;5308010;27;20031;-69
2023/07/22 09:29:39;;;;;;;9.30;5.18;;;;;;;20.99;100.00;101179.81;5315291;27;20038;-69
2023/07/22 09:32:11;;;;;;;9.38;5.55;;;;;;;20.94;100.00;101181.19;5312444;28;20457;-69
2023/07/22 09:34:55;;;;;;;12.02;5.53;;;;;;;20.95;100.00;101177.44;5314913;28;20038;-69
2023/07/22 09:37:37;;;;;;;9.55;5.30;;;;;;;21.00;100.00;101179.63;5316462;28;20028;-69
2023/07/22 09:40:16;;;;;;;8.77;4.90;;;;;;;21.07;100.00;101171.59;5317829;28;20027;-69
2023/07/22 09:42:53;;;;;;;10.15;5.00;;;;;;;21.15;100.00;101176.97;5314329;27;20122;-69
2023/07/22 09:45:25;;;;;;;10.27;5.03;;;;;;;21.18;100.00;101179.34;5311024;28;20031;-69
2023/07/22 09:47:58;;;;;;;9.45;5.07;;;;;;;21.27;100.00;101170.13;5315030;28;20043;-69
2023/07/22 09:50:29;;;;;;;7.80;4.57;;;;;;;21.26;100.00;101165.72;5315003;28;20038;-69
2023/07/22 09:53:03;;;;;;;8.98;4.60;;;;;;;21.20;100.00;101174.56;5310606;28;20106;-69
2023/07/22 09:55:35;;;;;;;8.23;5.10;;;;;;;21.12;100.00;101163.78;5313349;27;20103;-69
2023/07/22 09:58:09;;;;;;;7.90;4.40;;;;;;;21.13;100.00;101168.16;5309627;28;20157;-69
2023/07/22 10:00:42;;;;;;;;;;;;;;;21.34;100.00;101165.69;5313447;27;20023;-70
2023/07/22 10:03:16;;;;;;;8.00;3.42;;;;;;;21.24;100.00;101170.47;5316400;28;20048;-69
2023/07/22 10:05:48;;;;;;;7.35;4.07;;;;;;;21.22;100.00;101167.09;5313197;28;20111;-69
2023/07/22 10:08:21;;;;;;;7.65;3.70;;;;;;;21.21;100.00;101162.72;5315783;28;20091;-69
2023/07/22 10:10:55;;;;;;;7.88;4.32;;;;;;;21.20;100.00;101168.31;5314307;27;20027;-69
2023/07/22 10:13:27;;;;;;;6.82;4.07;;;;;;;21.17;100.00;101165.94;5308146;28;20039;-69
2023/07/22 10:15:59;;;;;;;8.95;4.38;;;;;;;21.21;100.00;101170.00;5312488;28;20394;-69
2023/07/22 10:18:32;;;;;;;9.73;4.65;;;;;;;21.17;100.00;101164.09;5310082;28;20039;-69
2023/07/22 10:21:04;;;;;;;8.55;3.45;;;;;;;21.19;100.00;101172.03;5309519;28;20114;-69
2023/07/22 10:23:38;;;;;;;6.88;3.08;;;;;;;21.19;100.00;101172.91;5307853;28;20397;-68
2023/07/22 10:26:13;;;;;;;7.05;2.80;;;;;;;;;;5307008;28;20030;-69
2023/07/22 10:28:46;;;;;;;7.05;2.85;;;;;;;21.18;100.00;101162.22;5312760;28;20051;-69
2023/07/22 10:31:22;;;;;;;7.03;2.90;;;;;;;21.24;100.00;101161.50;5306433;27;20045;-69
2023/07/22 10:33:54;;;;;;;6.78;2.70;;;;;;;21.34;100.00;101164.81;5307420;27;20043;-69
2023/07/22 10:36:30;;;;;;;4.85;2.50;;;;;;;21.41;100.00;101170.38;5311809;28;20023;-69
2023/07/22 10:39:01;;;;;;;6.95;2.65;;;;;;;21.42;100.00;101163.91;5314436;27;20028;-69
2023/07/22 10:41:38;;;;;;;7.15;2.53;;;;;;;21.48;100.00;101165.97;5312801;27;20554;-69
2023/07/22 10:44:10;;;;;;;5.65;2.22;;;;;;;21.48;100.00;101166.78;5307455;28;20427;-68
2023/07/22 10:46:43;;;;;;;5.72;2.45;;;;;;;21.52;100.00;101151.00;5311394;28;20127;-69
2023/07/22 10:49:16;;;;;;;6.13;2.70;;;;;;;21.69;100.00;101155.25;5316059;28;20082;-69
2023/07/22 10:51:50;;;;;;;6.85;2.60;;;;;;;21.83;100.00;101150.88;5314352;27;20031;-69
2023/07/22 10:54:36;;;;;;;5.60;2.42;;;;;;;21.95;100.00;101150.44;5313988;28;20043;-69
2023/07/22 10:57:16;;;;;;;5.22;1.95;;;;;;;22.00;100.00;101156.16;5315927;27;20035;-69
2023/07/22 10:59:50;;;;;;;5.47;2.00;;;;;;;22.00;100.00;101148.84;5313026;27;20382;-69
2023/07/22 11:02:26;;;;;;;3.78;1.70;;;;;;;22.01;100.00;101158.69;5307068;28;20033;-69
2023/07/22 11:05:05;;;;;;;5.28;2.20;;;;;;;21.92;100.00;101157.09;5315086;28;20166;-69
2023/07/22 11:07:45;;;;;;;4.40;2.05;;;;;;;21.85;100.00;101151.53;5305675;28;20082;-69
2023/07/22 11:10:18;;;;;;;4.07;1.90;;;;;;;21.77;100.00;101156.22;5312775;28;20039;-68
2023/07/22 11:12:50;;;;;;;5.65;1.90;;;;;;;21.76;100.00;101152.63;5311968;28;20058;-69
2023/07/22 11:15:22;;;;;;;5.32;1.60;;;;;;;21.69;100.00;101146.28;5309899;28;20059;-69
2023/07/22 11:17:54;;;;;;;4.28;1.92;;;;;;;21.79;100.00;101156.88;5308869;27;20036;-69
2023/07/22 11:20:30;;;;;;;4.70;2.08;;;;;;;21.79;100.00;101130.53;5311063;28;20084;-68
2023/07/22 11:23:01;;;;;;;6.13;1.52;;;;;;;21.85;100.00;101139.84;5309920;28;20035;-68
2023/07/22 11:25:34;;;;;;;5.35;1.73;;;;;;;21.91;100.00;101142.63;5311091;27;20055;-69
2023/07/22 11:28:05;;;;;;;6.82;1.85;;;;;;;21.92;100.00;101130.75;5316736;27;20814;-68
2023/07/22 11:30:37;;;;;;;5.60;2.33;;;;;;;21.90;100.00;101132.81;5311135;28;20032;-68